TimeCST,TemperatureF,Dew PointF,Humidity,Sea Level PressureIn,VisibilityMPH,Wind Direction,Wind SpeedMPH,Gust SpeedMPH,PrecipitationIn,Events,Conditions,WindDirDegrees,DateUTC
12:53 AM,33.1,7.0,34,29.99,10.0,Calm,Calm,-,N/A,,Clear,0,2013-02-14 06:53:00
1:53 AM,34.0,7.0,32,29.99,10.0,SW,3.5,-,N/A,,Clear,230,2013-02-14 07:53:00
2:53 AM,32.0,7.0,35,29.97,10.0,Calm,Calm,-,N/A,,Clear,0,2013-02-14 08:53:00
3:53 AM,26.1,7.0,44,29.98,10.0,North,3.5,-,N/A,,Clear,350,2013-02-14 09:53:00
4:53 AM,25.0,7.0,46,29.98,10.0,North,5.8,-,N/A,,Clear,360,2013-02-14 10:53:00
5:53 AM,25.0,7.0,46,29.99,10.0,NNW,3.5,-,N/A,,Clear,330,2013-02-14 11:53:00
6:53 AM,24.1,7.0,48,30.02,10.0,North,5.8,-,N/A,,Clear,350,2013-02-14 12:53:00
7:53 AM,24.1,7.0,48,30.05,10.0,Calm,Calm,-,N/A,,Clear,0,2013-02-14 13:53:00
8:53 AM,33.1,9.0,37,30.06,10.0,North,6.9,-,N/A,,Clear,360,2013-02-14 14:53:00
9:53 AM,44.1,9.0,24,30.05,10.0,Calm,Calm,-,N/A,,Clear,0,2013-02-14 15:53:00
10:53 AM,51.1,10.0,19,30.03,10.0,Calm,Calm,-,N/A,,Clear,0,2013-02-14 16:53:00
11:53 AM,55.0,12.0,18,30.01,10.0,Calm,Calm,-,N/A,,Clear,0,2013-02-14 17:53:00
12:53 PM,59.0,10.9,15,29.98,10.0,Calm,Calm,-,N/A,,Clear,0,2013-02-14 18:53:00
1:53 PM,62.1,10.0,13,29.94,10.0,SSW,4.6,-,N/A,,Clear,200,2013-02-14 19:53:00
2:53 PM,66.0,12.0,12,29.91,10.0,WSW,11.5,19.6,N/A,,Clear,240,2013-02-14 20:53:00
3:53 PM,66.0,12.0,12,29.90,10.0,West,6.9,-,N/A,,Clear,260,2013-02-14 21:53:00
4:53 PM,68.0,10.9,11,29.90,10.0,West,9.2,-,N/A,,Clear,270,2013-02-14 22:53:00
5:53 PM,66.9,10.9,11,29.89,10.0,NW,5.8,-,N/A,,Clear,320,2013-02-14 23:53:00
6:53 PM,57.9,10.9,16,29.91,10.0,NNE,5.8,-,N/A,,Clear,20,2013-02-15 00:53:00
7:53 PM,50.0,10.9,21,29.96,10.0,North,8.1,-,N/A,,Clear,10,2013-02-15 01:53:00
8:53 PM,48.0,10.9,22,29.98,10.0,NNE,8.1,-,N/A,,Clear,20,2013-02-15 02:53:00
9:53 PM,44.1,12.0,27,29.98,10.0,NNE,8.1,-,N/A,,Clear,20,2013-02-15 03:53:00
10:53 PM,41.0,12.0,31,30.01,10.0,North,8.1,-,N/A,,Clear,350,2013-02-15 04:53:00
11:53 PM,48.9,25.0,39,30.04,10.0,NE,20.7,29.9,N/A,,Clear,50,2013-02-15 05:53:00